Time;durP1;ratioP1;P1;durP2;ratioP2;P2;SDS_P1;SDS_P2;PMS_P1;PMS_P2;Temp;Humidity;BMP_temperature;BMP_pressure;BME280_temperature;BME280_humidity;BME280_pressure;Samples;Min_cycle;Max_cycle;Signal;HPM_P1;HPM_P2
2022/08/27 04:00:44;;;;;;;41.30;37.03;;;20.30;99.90;;;;;;5834180;23;20501;-63
2022/08/27 04:03:12;;;;;;;40.57;36.50;;;20.20;99.90;;;;;;4977447;28;20467;-63
2022/08/27 04:05:39;;;;;;;40.47;35.20;;;20.20;99.90;;;;;;4977443;28;20446;-63
2022/08/27 04:08:06;;;;;;;43.10;36.87;;;20.20;99.90;;;;;;4977285;28;20465;-63
2022/08/27 04:10:33;;;;;;;40.73;35.67;;;20.20;99.90;;;;;;4977082;28;20474;-63
2022/08/27 04:13:00;;;;;;;42.30;37.07;;;20.20;99.90;;;;;;4977137;28;20450;-63
2022/08/27 04:15:26;;;;;;;47.00;38.27;;;20.20;99.90;;;;;;4976797;28;21058;-63
2022/08/27 04:17:54;;;;;;;42.27;37.67;;;20.20;99.90;;;;;;4977105;28;20454;-64
2022/08/27 04:20:21;;;;;;;44.97;40.40;;;20.20;99.90;;;;;;4976982;28;20525;-64
2022/08/27 04:22:48;;;;;;;43.67;37.00;;;20.20;99.90;;;;;;4976913;28;20455;-64
2022/08/27 04:25:14;;;;;;;43.03;38.53;;;20.20;99.90;;;;;;4976997;28;20450;-64
2022/08/27 04:27:42;;;;;;;43.40;38.97;;;20.30;99.90;;;;;;4977294;28;20454;-64
2022/08/27 04:30:09;;;;;;;47.10;42.00;;;20.20;99.90;;;;;;4977026;28;20470;-64
2022/08/27 04:32:36;;;;;;;48.13;43.13;;;20.20;99.90;;;;;;4976863;28;20454;-64
2022/08/27 04:35:05;;;;;;;48.57;42.27;;;20.20;99.90;;;;;;4976724;28;20451;-64
2022/08/27 04:37:33;;;;;;;47.40;41.97;;;20.20;99.90;;;;;;4976732;28;20461;-64
2022/08/27 04:40:00;;;;;;;49.50;44.00;;;20.20;99.90;;;;;;4976461;28;20941;-64
2022/08/27 04:42:26;;;;;;;50.80;45.33;;;20.20;99.90;;;;;;4976610;28;20486;-64
2022/08/27 04:44:53;;;;;;;49.10;43.70;;;20.20;99.90;;;;;;4976386;28;20989;-64
2022/08/27 04:47:21;;;;;;;49.47;44.10;;;20.20;99.90;;;;;;4977113;28;20461;-64
2022/08/27 04:49:47;;;;;;;49.80;44.90;;;20.20;99.90;;;;;;4976685;28;20933;-64
2022/08/27 04:52:16;;;;;;;47.10;42.07;;;20.20;99.90;;;;;;4976333;28;20478;-63
2022/08/27 04:54:43;;;;;;;49.90;44.60;;;20.20;99.90;;;;;;4976477;28;20477;-64
2022/08/27 04:57:09;;;;;;;49.47;44.50;;;20.20;99.90;;;;;;4976458;28;20514;-64
2022/08/27 04:59:37;;;;;;;48.30;43.13;;;20.20;99.90;;;;;;4976439;28;20463;-64
2022/08/27 05:02:08;;;;;;;49.97;44.50;;;20.20;99.90;;;;;;4976339;28;20489;-64
2022/08/27 05:04:35;;;;;;;49.67;44.10;;;20.20;99.90;;;;;;4976372;28;20473;-64
2022/08/27 05:07:01;;;;;;;47.73;42.47;;;20.20;99.90;;;;;;4976332;28;20471;-64
2022/08/27 05:09:30;;;;;;;48.20;43.27;;;20.20;99.90;;;;;;4976154;28;20458;-64
2022/08/27 05:11:57;;;;;;;51.03;45.73;;;20.20;99.90;;;;;;4976058;28;20474;-64
2022/08/27 05:14:28;;;;;;;48.03;42.87;;;20.20;99.90;;;;;;4976008;28;20450;-63
2022/08/27 05:16:55;;;;;;;49.67;44.67;;;20.20;99.90;;;;;;4976164;28;20859;-63
2022/08/27 05:19:22;;;;;;;46.40;41.33;;;20.30;99.90;;;;;;4975703;28;20581;-64
2022/08/27 05:21:51;;;;;;;45.40;40.70;;;20.30;99.90;;;;;;4976109;28;20485;-64
2022/08/27 05:24:18;;;;;;;47.77;42.17;;;20.30;99.90;;;;;;4975998;28;20482;-64
2022/08/27 05:26:46;;;;;;;46.23;41.80;;;20.40;99.90;;;;;;4975999;28;20459;-64
2022/08/27 05:29:14;;;;;;;44.73;40.23;;;20.40;99.90;;;;;;4975859;28;20458;-63
2022/08/27 05:31:42;;;;;;;43.43;39.10;;;20.40;99.90;;;;;;4976421;28;20545;-64
2022/08/27 05:34:10;;;;;;;44.03;39.40;;;20.50;99.90;;;;;;4975723;28;20453;-64
2022/08/27 05:36:37;;;;;;;43.53;38.93;;;20.50;99.90;;;;;;4975718;28;20482;-64
2022/08/27 05:39:05;;;;;;;44.43;39.97;;;20.50;99.90;;;;;;4975844;28;20455;-64
2022/08/27 05:41:33;;;;;;;43.00;38.80;;;20.60;99.90;;;;;;4975568;28;20478;-64
2022/08/27 05:44:04;;;;;;;42.47;38.17;;;20.60;99.90;;;;;;4975253;28;20541;-64
2022/08/27 05:46:31;;;;;;;43.23;38.70;;;20.60;99.90;;;;;;4975356;28;20801;-64
2022/08/27 05:48:59;;;;;;;43.50;38.90;;;20.70;99.90;;;;;;4975219;28;20938;-64
2022/08/27 05:51:28;;;;;;;42.77;38.67;;;20.70;99.90;;;;;;4975280;28;20474;-64
2022/08/27 05:53:57;;;;;;;44.17;38.27;;;20.70;99.90;;;;;;4975335;28;20459;-64
2022/08/27 05:56:26;;;;;;;41.00;37.20;;;20.80;99.90;;;;;;4975422;28;20450;-64
2022/08/27 06:01:42;;;;;;;41.13;36.93;;;20.90;99.90;;;;;;4975074;28;20469;-63
2022/08/27 06:04:10;;;;;;;44.20;39.93;;;20.90;99.90;;;;;;4975305;28;20466;-64
2022/08/27 06:06:38;;;;;;;42.13;38.00;;;20.90;99.90;;;;;;4975651;28;20451;-64
2022/08/27 06:09:06;;;;;;;44.50;39.73;;;20.90;99.90;;;;;;4975296;28;20459;-64
2022/08/27 06:11:33;;;;;;;46.33;41.60;;;20.90;99.90;;;;;;4975259;28;20475;-64
2022/08/27 06:14:00;;;;;;;47.67;42.77;;;20.90;99.90;;;;;;4975375;28;20470;-64
2022/08/27 06:16:26;;;;;;;46.97;42.00;;;20.90;99.90;;;;;;4975061;28;20471;-64
2022/08/27 06:18:56;;;;;;;43.80;38.80;;;20.90;99.90;;;;;;4974988;28;20460;-63
2022/08/27 06:21:23;;;;;;;44.03;39.63;;;21.00;99.90;;;;;;4974616;28;20885;-64
2022/08/27 06:23:50;;;;;;;46.00;41.40;;;21.00;99.90;;;;;;4974911;28;20470;-64
2022/08/27 06:26:19;;;;;;;45.30;41.00;;;21.00;99.90;;;;;;4974935;28;20481;-64
2022/08/27 06:28:46;;;;;;;44.83;40.33;;;21.10;99.90;;;;;;4974890;28;20454;-64
2022/08/27 06:31:15;;;;;;;43.93;39.23;;;21.20;99.90;;;;;;4974843;28;20479;-64
2022/08/27 06:33:44;;;;;;;43.07;37.60;;;21.20;99.90;;;;;;4974642;28;20806;-64
2022/08/27 06:36:15;;;;;;;43.77;39.20;;;21.30;99.90;;;;;;4974937;28;20462;-65
2022/08/27 06:38:42;;;;;;;40.40;36.33;;;21.50;99.90;;;;;;4975593;28;20754;-64
2022/08/27 06:41:11;;;;;;;41.47;37.37;;;21.60;99.90;;;;;;4974783;28;20506;-64
2022/08/27 06:43:39;;;;;;;41.77;37.80;;;21.70;99.90;;;;;;4974710;28;20462;-64
2022/08/27 06:46:08;;;;;;;39.10;35.30;;;21.70;99.90;;;;;;4974703;28;20465;-64
2022/08/27 06:48:35;;;;;;;40.33;35.97;;;21.70;99.90;;;;;;4974757;28;20451;-64
2022/08/27 06:51:08;;;;;;;40.73;36.90;;;21.70;99.90;;;;;;4974492;28;20478;-64
2022/08/27 06:53:36;;;;;;;38.47;34.77;;;21.70;99.90;;;;;;4974592;28;20493;-64
2022/08/27 06:56:03;;;;;;;39.83;35.90;;;21.60;99.90;;;;;;4974683;28;20869;-64
2022/08/27 06:58:32;;;;;;;39.43;35.50;;;21.70;99.90;;;;;;4974781;28;20458;-64
2022/08/27 07:00:58;;;;;;;39.20;35.60;;;21.70;99.90;;;;;;4974400;28;20486;-64
2022/08/27 07:03:25;;;;;;;38.53;34.60;;;21.70;99.90;;;;;;4974705;28;20466;-64
2022/08/27 07:05:52;;;;;;;37.97;34.30;;;21.70;99.90;;;;;;4974614;28;20475;-64
2022/08/27 07:08:19;;;;;;;39.53;35.53;;;21.60;99.90;;;;;;4974622;28;20462;-64
2022/08/27 07:10:47;;;;;;;38.40;34.70;;;21.60;99.90;;;;;;4974549;28;20877;-65
2022/08/27 07:13:14;;;;;;;38.20;34.60;;;21.50;99.90;;;;;;4974453;28;20461;-65
2022/08/27 07:15:41;;;;;;;39.13;33.40;;;21.50;99.90;;;;;;4974670;28;20505;-64
2022/08/27 07:18:07;;;;;;;38.70;35.00;;;21.50;99.90;;;;;;4974915;28;20539;-65
2022/08/27 07:20:34;;;;;;;37.50;33.30;;;21.40;99.90;;;;;;4974384;28;20475;-64
2022/08/27 07:23:01;;;;;;;39.93;35.60;;;21.40;99.90;;;;;;4974429;28;20545;-65
2022/08/27 07:25:30;;;;;;;37.83;33.80;;;21.40;99.90;;;;;;4974342;28;20603;-66
2022/08/27 07:27:58;;;;;;;37.80;34.07;;;21.40;99.90;;;;;;4974393;28;20461;-64
2022/08/27 07:30:27;;;;;;;39.07;35.07;;;21.40;99.90;;;;;;4974274;28;20462;-65
2022/08/27 07:32:54;;;;;;;40.90;36.50;;;21.30;99.90;;;;;;4976404;28;20490;-64
2022/08/27 07:35:21;;;;;;;38.33;34.77;;;21.20;99.90;;;;;;4977895;28;20850;-64
2022/08/27 07:37:48;;;;;;;39.30;35.50;;;21.30;99.90;;;;;;4977453;28;20961;-64
2022/08/27 07:40:15;;;;;;;40.50;35.03;;;21.30;99.90;;;;;;4977691;28;20839;-64
2022/08/27 07:45:29;;;;;;;38.57;34.73;;;21.40;99.90;;;;;;4977668;28;20548;-66
2022/08/27 07:47:56;;;;;;;39.33;35.60;;;21.50;99.90;;;;;;4977473;28;20454;-65
2022/08/27 07:50:23;;;;;;;38.80;34.87;;;21.50;99.90;;;;;;4977600;28;20478;-64
2022/08/27 07:52:50;;;;;;;38.63;34.90;;;21.50;99.90;;;;;;4977610;28;20569;-65
2022/08/27 07:55:17;;;;;;;38.53;34.97;;;21.50;99.90;;;;;;4977591;28;20468;-64
2022/08/27 07:57:46;;;;;;;39.10;35.00;;;21.40;99.90;;;;;;4978604;28;20459;-65
2022/08/27 08:00:14;;;;;;;38.80;35.30;;;21.40;99.90;;;;;;4977192;28;20463;-65
2022/08/27 08:02:43;;;;;;;42.83;38.50;;;21.40;99.90;;;;;;4977458;28;20466;-65
2022/08/27 08:05:12;;;;;;;39.83;35.90;;;21.20;99.90;;;;;;4977702;28;20534;-64
2022/08/27 08:07:39;;;;;;;40.57;36.20;;;21.20;99.90;;;;;;4977708;28;20549;-64
2022/08/27 08:10:07;;;;;;;42.80;36.80;;;21.20;99.90;;;;;;4977644;28;20869;-63
2022/08/27 08:12:35;;;;;;;44.27;39.97;;;21.10;99.90;;;;;;4977620;28;20528;-65
2022/08/27 08:15:02;;;;;;;41.30;37.50;;;21.20;99.90;;;;;;4977408;28;20526;-63
2022/08/27 08:17:29;;;;;;;41.33;36.80;;;21.20;99.90;;;;;;4977533;28;20461;-63
2022/08/27 08:19:57;;;;;;;44.07;37.03;;;21.20;99.90;;;;;;4977495;28;20978;-64
2022/08/27 08:22:24;;;;;;;38.23;34.57;;;21.20;99.90;;;;;;4977262;28;21001;-64
2022/08/27 08:24:52;;;;;;;43.00;38.73;;;21.20;99.90;;;;;;4977040;28;20574;-64
2022/08/27 08:27:19;;;;;;;44.27;39.73;;;21.30;99.90;;;;;;4977318;28;20458;-63
2022/08/27 08:29:46;;;;;;;43.47;39.07;;;21.20;99.90;;;;;;4977134;28;20461;-63
2022/08/27 08:32:13;;;;;;;38.27;34.63;;;21.20;99.90;;;;;;4976934;28;20486;-64
2022/08/27 08:34:39;;;;;;;36.67;32.27;;;21.10;99.90;;;;;;4977084;28;20439;-63
2022/08/27 08:37:08;;;;;;;35.80;32.37;;;21.00;99.90;;;;;;4976706;28;20826;-65
2022/08/27 08:39:36;;;;;;;34.53;31.33;;;21.00;99.90;;;;;;4977062;28;20454;-65
2022/08/27 08:42:05;;;;;;;37.30;32.53;;;20.80;99.90;;;;;;4976459;28;20840;-65
2022/08/27 08:44:35;;;;;;;28.07;25.47;;;20.70;99.90;;;;;;4976407;28;20502;-63
2022/08/27 08:47:07;;;;;;;32.80;29.60;;;20.70;99.90;;;;;;4976835;28;20453;-62
2022/08/27 08:49:41;;;;;;;31.67;28.90;;;20.60;99.90;;;;;;4976514;28;20620;-62
2022/08/27 08:52:18;;;;;;;33.93;30.03;;;20.50;99.90;;;;;;4976542;28;20478;-62
2022/08/27 08:54:45;;;;;;;33.60;30.23;;;20.40;99.90;;;;;;4976464;28;20446;-62
2022/08/27 08:57:20;;;;;;;32.43;29.37;;;20.40;99.90;;;;;;4977110;28;20466;-62
2022/08/27 08:59:56;;;;;;;34.00;30.50;;;20.40;99.90;;;;;;4976183;28;20992;-62
2022/08/27 09:02:23;;;;;;;33.00;29.90;;;20.40;99.90;;;;;;4976000;28;20880;-62
2022/08/27 09:04:49;;;;;;;32.97;29.70;;;20.40;99.90;;;;;;4976469;28;20486;-62
2022/08/27 09:07:26;;;;;;;33.70;30.30;;;20.40;99.90;;;;;;4976562;28;20470;-61
2022/08/27 09:10:03;;;;;;;35.30;31.80;;;20.40;99.90;;;;;;4976229;28;20930;-62
2022/08/27 09:12:32;;;;;;;37.23;33.43;;;20.40;99.90;;;;;;4976191;28;20471;-62
2022/08/27 09:15:02;;;;;;;39.53;35.63;;;20.40;99.90;;;;;;4976104;28;20435;-62
2022/08/27 09:17:29;;;;;;;39.33;35.40;;;20.40;99.90;;;;;;4976107;28;20498;-62
2022/08/27 09:19:56;;;;;;;39.67;35.60;;;20.30;99.90;;;;;;4976511;28;20458;-62
2022/08/27 09:22:33;;;;;;;39.90;35.90;;;20.30;99.90;;;;;;4976469;28;20475;-62
2022/08/27 09:25:07;;;;;;;41.67;37.17;;;20.30;99.90;;;;;;4976207;28;20769;-62
2022/08/27 09:27:35;;;;;;;39.23;35.30;;;20.30;99.90;;;;;;4976080;28;20501;-62
2022/08/27 09:30:08;;;;;;;42.27;37.93;;;20.30;99.90;;;;;;4975700;28;20832;-62
2022/08/27 09:32:35;;;;;;;42.87;38.10;;;20.30;99.90;;;;;;4975812;28;20501;-62
2022/08/27 09:35:05;;;;;;;43.13;38.47;;;20.30;99.90;;;;;;4975838;28;20445;-62
2022/08/27 09:37:40;;;;;;;39.70;36.00;;;20.30;99.90;;;;;;4975784;28;20442;-62
2022/08/27 09:40:14;;;;;;;38.07;34.10;;;20.50;99.90;;;;;;4975612;28;20489;-62
2022/08/27 09:42:43;;;;;;;39.10;35.20;;;20.50;99.90;;;;;;4975731;28;20435;-62
2022/08/27 09:45:13;;;;;;;40.20;36.30;;;20.60;99.90;;;;;;4975567;28;20568;-63
2022/08/27 09:47:45;;;;;;;40.33;36.13;;;20.60;99.90;;;;;;4975751;28;20458;-62
2022/08/27 09:50:12;;;;;;;42.77;38.27;;;20.60;99.90;;;;;;4975745;28;20508;-62
2022/08/27 09:52:50;;;;;;;40.80;36.50;;;20.70;99.90;;;;;;4975115;28;20994;-62
2022/08/27 09:55:30;;;;;;;43.03;38.77;;;20.70;99.90;;;;;;4974957;28;20445;-62
2022/08/27 09:57:58;;;;;;;40.87;36.57;;;20.80;99.90;;;;;;4975596;28;20839;-62
2022/08/27 10:00:34;;;;;;;40.60;36.33;;;20.80;99.90;;;;;;4975107;28;20458;-63
2022/08/27 10:03:02;;;;;;;41.37;37.37;;;20.80;99.90;;;;;;4975059;28;20458;-62
2022/08/27 10:05:32;;;;;;;43.07;37.83;;;20.80;99.90;;;;;;4975106;28;20478;-63
2022/08/27 10:08:04;;;;;;;40.23;36.03;;;20.80;99.90;;;;;;4975377;28;20459;-63
2022/08/27 10:10:44;;;;;;;37.73;34.23;;;20.70;99.90;;;;;;4974836;28;20941;-63
2022/08/27 10:13:17;;;;;;;40.73;36.60;;;20.70;99.90;;;;;;4975015;28;20906;-64
2022/08/27 10:15:55;;;;;;;40.30;36.20;;;20.70;99.90;;;;;;4975131;28;20452;-64
2022/08/27 10:18:29;;;;;;;39.20;35.00;;;20.70;99.90;;;;;;4975055;28;20439;-64
2022/08/27 10:21:07;;;;;;;38.73;34.93;;;20.80;99.90;;;;;;4975695;28;20475;-64
2022/08/27 10:23:44;;;;;;;39.57;35.63;;;20.90;99.90;;;;;;4975049;28;20446;-63
2022/08/27 10:26:20;;;;;;;37.33;33.53;;;20.90;99.90;;;;;;4975031;28;20466;-64
2022/08/27 10:28:59;;;;;;;39.73;36.00;;;20.90;99.90;;;;;;4974529;28;20438;-64
2022/08/27 10:31:32;;;;;;;40.13;36.17;;;21.00;99.90;;;;;;4974886;28;20478;-65
2022/08/27 10:34:11;;;;;;;39.77;35.67;;;21.10;99.90;;;;;;4974810;28;20438;-65
2022/08/27 10:36:46;;;;;;;38.93;34.83;;;21.20;99.90;;;;;;4974805;28;20490;-65
2022/08/27 10:39:22;;;;;;;35.20;31.90;;;21.10;99.90;;;;;;4974968;28;20445;-65
2022/08/27 10:41:54;;;;;;;38.13;34.73;;;21.20;99.90;;;;;;4975559;28;20488;-64
2022/08/27 10:44:41;;;;;;;36.90;33.30;;;21.10;99.90;;;;;;4974499;28;20450;-67
2022/08/27 10:47:16;;;;;;;35.67;32.03;;;21.20;99.90;;;;;;4974465;28;20446;-64
2022/08/27 10:49:50;;;;;;;38.87;34.83;;;21.10;99.90;;;;;;4974757;28;20438;-64
2022/08/27 10:52:23;;;;;;;40.97;36.33;;;21.20;99.90;;;;;;4974680;28;20475;-64
2022/08/27 10:54:57;;;;;;;39.10;35.00;;;21.20;99.90;;;;;;4975267;28;20473;-64
2022/08/27 10:57:41;;;;;;;38.73;35.00;;;21.30;99.90;;;;;;4975281;28;20439;-63
2022/08/27 11:00:13;;;;;;;40.90;36.90;;;21.30;99.90;;;;;;4974406;28;20973;-63
2022/08/27 11:02:44;;;;;;;37.27;33.97;;;21.40;99.90;;;;;;4974631;28;20471;-63
2022/08/27 11:05:17;;;;;;;39.37;35.33;;;21.50;99.90;;;;;;4974462;28;20469;-64
2022/08/27 11:07:48;;;;;;;40.57;36.33;;;21.50;99.90;;;;;;4978133;28;20449;-64
2022/08/27 11:10:22;;;;;;;38.47;34.73;;;21.40;99.90;;;;;;4978735;28;20466;-64
2022/08/27 11:12:52;;;;;;;40.73;36.70;;;21.50;99.90;;;;;;4978826;28;20849;-64
2022/08/27 11:15:24;;;;;;;40.43;36.43;;;21.50;99.90;;;;;;4978397;28;20435;-64
2022/08/27 11:17:57;;;;;;;38.57;34.60;;;21.50;99.90;;;;;;4978360;28;20443;-64
2022/08/27 11:20:28;;;;;;;38.60;34.60;;;21.60;99.90;;;;;;4978153;28;20981;-64
2022/08/27 11:23:00;;;;;;;37.03;33.50;;;21.60;99.90;;;;;;4978225;28;20446;-64
2022/08/27 11:25:45;;;;;;;35.90;32.30;;;21.70;99.90;;;;;;4977932;28;20470;-64
2022/08/27 11:28:14;;;;;;;39.70;35.90;;;21.80;99.90;;;;;;4978144;28;20442;-64
2022/08/27 11:30:51;;;;;;;36.73;33.27;;;21.80;99.90;;;;;;4978097;28;20501;-64
2022/08/27 11:33:27;;;;;;;35.00;31.90;;;22.00;99.90;;;;;;4978029;28;20450;-64
2022/08/27 11:36:41;;;;;;;41.00;37.10;;;22.10;99.90;;;;;;4978112;28;20435;-64
2022/08/27 11:39:22;;;;;;;37.23;33.90;;;22.10;99.90;;;;;;4978066;28;20478;-64
2022/08/27 11:42:01;;;;;;;39.27;35.47;;;22.20;99.90;;;;;;4977858;28;20493;-64
2022/08/27 11:44:29;;;;;;;36.87;33.70;;;22.20;99.90;;;;;;4978013;28;20446;-64
2022/08/27 11:46:58;;;;;;;37.87;34.23;;;22.20;99.90;;;;;;4977854;28;20485;-64
2022/08/27 11:49:28;;;;;;;33.83;30.70;;;22.20;99.90;;;;;;4977990;28;20458;-64
2022/08/27 11:52:05;;;;;;;36.87;33.27;;;22.20;99.90;;;;;;4977617;28;20479;-63
2022/08/27 11:54:47;;;;;;;37.20;33.90;;;22.30;99.90;;;;;;4977472;28;20922;-63
2022/08/27 11:57:25;;;;;;;37.50;34.30;;;22.20;99.90;;;;;;4977264;28;20849;-64
2022/08/27 11:59:52;;;;;;;38.80;35.20;;;22.20;99.90;;;;;;4977445;28;20973;-64
2022/08/27 12:02:23;;;;;;;40.00;36.20;;;22.20;99.90;;;;;;4977995;28;20486;-64
2022/08/27 12:04:49;;;;;;;39.47;35.67;;;22.20;99.90;;;;;;4977241;28;20918;-64
2022/08/27 12:07:30;;;;;;;38.50;34.90;;;22.20;99.90;;;;;;4977115;28;20984;-64
2022/08/27 12:10:22;;;;;;;41.37;37.67;;;22.20;99.90;;;;;;4977535;28;20445;-64
2022/08/27 12:12:59;;;;;;;40.70;36.90;;;22.30;99.90;;;;;;4967588;28;20454;-64
2022/08/27 12:15:38;;;;;;;41.03;36.90;;;22.30;99.90;;;;;;4977732;28;20598;-64
2022/08/27 12:18:17;;;;;;;41.07;37.27;;;22.40;99.90;;;;;;4976650;28;20443;-64
2022/08/27 12:20:55;;;;;;;41.23;37.47;;;22.50;99.90;;;;;;4977244;28;20470;-64
2022/08/27 12:23:42;;;;;;;38.20;34.50;;;22.50;99.90;;;;;;4977064;28;20461;-64
2022/08/27 12:26:23;;;;;;;39.50;35.63;;;22.60;99.90;;;;;;4976709;28;21004;-64
2022/08/27 12:28:51;;;;;;;38.23;34.93;;;22.70;99.90;;;;;;4977105;28;20822;-64
2022/08/27 12:31:21;;;;;;;34.43;31.23;;;22.70;99.90;;;;;;4977150;28;20474;-64
2022/08/27 12:33:52;;;;;;;38.47;35.17;;;22.70;99.90;;;;;;4977655;28;20457;-64
2022/08/27 12:36:23;;;;;;;39.43;35.87;;;22.80;99.90;;;;;;4977454;28;20439;-64
2022/08/27 12:38:53;;;;;;;35.77;32.43;;;22.80;99.90;;;;;;4976900;28;20471;-64
2022/08/27 12:41:28;;;;;;;36.97;33.47;;;22.80;99.90;;;;;;4976873;28;20494;-64
2022/08/27 12:44:08;;;;;;;35.63;32.53;;;22.90;99.90;;;;;;4977093;28;20486;-63
2022/08/27 12:46:45;;;;;;;39.63;33.83;;;23.00;99.90;;;;;;4977046;28;20490;-63
2022/08/27 12:49:12;;;;;;;34.33;31.27;;;23.10;99.90;;;;;;4976987;28;20776;-63
2022/08/27 12:51:39;;;;;;;36.27;32.87;;;23.20;99.90;;;;;;4977020;28;20482;-63
2022/08/27 12:54:19;;;;;;;36.07;32.70;;;23.20;99.90;;;;;;4977373;28;20454;-64
2022/08/27 12:56:58;;;;;;;40.00;36.30;;;23.20;99.90;;;;;;4976854;28;20435;-63
2022/08/27 12:59:46;;;;;;;38.27;34.73;;;23.20;99.90;;;;;;4976575;28;20526;-63
2022/08/27 13:02:27;;;;;;;42.20;38.13;;;23.20;99.90;;;;;;4976513;28;20486;-63
2022/08/27 13:04:54;;;;;;;39.17;35.23;;;23.20;99.90;;;;;;4976371;28;20450;-64
2022/08/27 13:07:28;;;;;;;34.83;31.60;;;23.20;99.90;;;;;;4977108;28;20479;-63
2022/08/27 13:09:55;;;;;;;38.40;35.17;;;23.30;99.90;;;;;;4976392;28;20512;-64
2022/08/27 13:12:25;;;;;;;37.07;33.50;;;23.40;99.90;;;;;;4976399;28;20863;-63
2022/08/27 13:14:53;;;;;;;37.47;34.10;;;23.40;99.90;;;;;;4976220;28;20818;-63
2022/08/27 13:17:21;;;;;;;34.13;31.03;;;23.40;99.90;;;;;;4976095;28;20489;-65
2022/08/27 13:19:52;;;;;;;35.97;32.70;;;23.60;99.90;;;;;;4976095;28;20459;-64
2022/08/27 13:22:26;;;;;;;34.73;31.53;;;23.80;99.90;;;;;;4976010;28;20474;-64
2022/08/27 13:24:54;;;;;;;35.33;32.00;;;23.90;99.90;;;;;;4976120;28;20495;-65
2022/08/27 13:27:27;;;;;;;33.90;30.60;;;23.90;99.90;;;;;;4975719;28;20509;-65
2022/08/27 13:29:57;;;;;;;33.13;30.23;;;23.80;99.90;;;;;;4974723;28;20518;-65
2022/08/27 13:32:27;;;;;;;32.37;29.33;;;23.90;99.90;;;;;;4975877;28;20478;-65
2022/08/27 13:34:54;;;;;;;32.90;29.93;;;24.00;99.90;;;;;;4975689;28;20461;-64
2022/08/27 13:37:26;;;;;;;33.93;30.97;;;24.00;99.90;;;;;;4975765;28;20482;-63
2022/08/27 13:39:54;;;;;;;33.10;29.97;;;24.10;99.90;;;;;;4975456;28;20972;-64
2022/08/27 13:42:23;;;;;;;34.53;31.27;;;24.10;99.90;;;;;;4975749;28;20474;-64
2022/08/27 13:44:52;;;;;;;35.57;32.67;;;24.20;99.90;;;;;;4975464;28;20530;-64
2022/08/27 13:47:22;;;;;;;27.37;24.87;;;24.10;99.90;;;;;;4975972;28;20505;-63
2022/08/27 13:49:50;;;;;;;32.13;29.10;;;24.20;99.90;;;;;;4976054;28;20443;-64
2022/08/27 13:52:26;;;;;;;34.17;30.93;;;24.30;99.90;;;;;;4975436;28;20485;-63
2022/08/27 13:54:58;;;;;;;30.07;27.47;;;24.40;99.90;;;;;;4975543;28;20497;-64
2022/08/27 13:57:43;;;;;;;31.90;28.90;;;24.50;99.90;;;;;;4975486;28;20446;-64
2022/08/27 14:00:14;;;;;;;33.67;30.57;;;24.50;99.90;;;;;;4975990;28;20439;-64
2022/08/27 14:02:43;;;;;;;33.10;30.20;;;24.50;99.90;;;;;;4976232;28;20477;-64
2022/08/27 14:05:12;;;;;;;35.67;32.67;;;24.40;99.90;;;;;;4975743;28;20455;-63
2022/08/27 14:07:46;;;;;;;34.20;31.33;;;24.40;99.90;;;;;;4975304;28;20489;-63
2022/08/27 14:10:31;;;;;;;35.23;32.13;;;24.50;99.90;;;;;;4975637;28;20449;-64
2022/08/27 14:13:00;;;;;;;29.90;27.40;;;24.50;99.90;;;;;;4975386;28;20546;-62
2022/08/27 14:15:32;;;;;;;31.30;28.20;;;24.60;99.90;;;;;;4975142;28;20447;-63
2022/08/27 14:18:01;;;;;;;32.30;29.57;;;24.60;99.90;;;;;;4975180;28;20809;-63
2022/08/27 14:20:28;;;;;;;34.67;30.97;;;24.60;99.90;;;;;;4975066;28;20435;-62
2022/08/27 14:22:56;;;;;;;35.23;32.10;;;24.60;99.90;;;;;;4975219;28;20454;-62
2022/08/27 14:25:22;;;;;;;34.00;30.90;;;24.60;99.90;;;;;;4975177;28;20534;-62
2022/08/27 14:27:51;;;;;;;35.13;31.77;;;24.60;99.90;;;;;;4974738;28;21001;-62
2022/08/27 14:30:21;;;;;;;34.40;30.90;;;24.60;99.90;;;;;;4974982;28;20546;-61
2022/08/27 14:32:49;;;;;;;30.57;27.57;;;24.60;99.90;;;;;;4974911;28;20458;-64
2022/08/27 14:35:17;;;;;;;28.67;26.17;;;24.70;99.90;;;;;;4974918;28;20449;-65
2022/08/27 14:37:45;;;;;;;33.70;30.90;;;24.70;99.90;;;;;;4975546;28;20454;-61
2022/08/27 14:40:13;;;;;;;34.60;31.60;;;24.70;99.90;;;;;;4974875;28;20509;-64
2022/08/27 14:42:40;;;;;;;32.77;29.70;;;24.80;99.90;;;;;;4978304;28;20474;-65
2022/08/27 14:45:07;;;;;;;31.03;28.43;;;24.70;99.90;;;;;;4978765;28;20442;-65
2022/08/27 14:47:36;;;;;;;33.27;30.07;;;24.70;99.90;;;;;;4978643;28;20485;-64
2022/08/27 14:50:04;;;;;;;32.60;29.80;;;24.60;99.90;;;;;;4978650;28;20477;-63
2022/08/27 14:52:32;;;;;;;31.47;28.87;;;24.60;99.90;;;;;;4978439;28;20478;-62
2022/08/27 14:54:59;;;;;;;30.40;27.60;;;24.60;99.90;;;;;;4979300;28;20502;-62
2022/08/27 14:57:26;;;;;;;32.43;29.80;;;24.50;99.90;;;;;;4978377;28;20857;-62
2022/08/27 14:59:53;;;;;;;31.87;28.97;;;24.50;99.90;;;;;;4978121;28;20465;-62
2022/08/27 15:02:22;;;;;;;32.27;29.30;;;24.50;99.90;;;;;;4978075;28;20482;-63
2022/08/27 15:04:48;;;;;;;29.60;26.73;;;24.50;99.90;;;;;;4978025;28;20458;-63
2022/08/27 15:07:15;;;;;;;30.07;27.37;;;24.60;99.90;;;;;;4978219;28;20482;-63
2022/08/27 15:09:43;;;;;;;31.03;28.10;;;24.70;99.90;;;;;;4978134;28;20455;-63
2022/08/27 15:12:10;;;;;;;31.40;28.60;;;24.80;99.90;;;;;;4978030;28;20541;-63
2022/08/27 15:14:37;;;;;;;30.40;27.57;;;24.90;99.90;;;;;;4977839;28;20991;-63
2022/08/27 15:17:06;;;;;;;30.77;28.00;;;25.00;99.90;;;;;;4978013;28;20450;-63
2022/08/27 15:19:33;;;;;;;30.40;27.50;;;25.00;99.90;;;;;;4978248;28;20851;-63
2022/08/27 15:22:05;;;;;;;30.23;27.60;;;25.00;99.90;;;;;;4978023;28;20474;-63
2022/08/27 15:24:39;;;;;;;30.90;27.90;;;25.00;99.90;;;;;;4977857;28;20876;-63
2022/08/27 15:27:07;;;;;;;28.60;26.00;;;25.00;99.90;;;;;;4978058;28;20462;-63
2022/08/27 15:29:34;;;;;;;30.40;27.60;;;25.00;99.90;;;;;;4977761;28;20454;-63
2022/08/27 15:32:01;;;;;;;28.07;25.67;;;25.00;99.90;;;;;;4977756;28;20482;-63
2022/08/27 15:34:27;;;;;;;28.90;26.40;;;25.20;99.90;;;;;;4977850;28;20459;-64
2022/08/27 15:36:55;;;;;;;27.30;24.70;;;25.20;99.90;;;;;;4978453;28;20461;-63
2022/08/27 15:39:22;;;;;;;28.27;25.83;;;25.20;99.90;;;;;;4978123;28;20454;-63
2022/08/27 15:41:49;;;;;;;27.90;25.47;;;25.30;99.90;;;;;;4977574;28;21016;-63
2022/08/27 15:44:18;;;;;;;27.20;25.10;;;25.20;99.90;;;;;;4977628;28;20459;-63
2022/08/27 15:46:44;;;;;;;30.90;27.87;;;25.20;99.90;;;;;;4977466;28;20529;-63
2022/08/27 15:49:14;;;;;;;26.87;24.40;;;25.20;99.90;;;;;;4977645;28;20465;-63
2022/08/27 15:51:41;;;;;;;27.33;24.83;;;25.10;99.90;;;;;;4977457;28;20470;-64
2022/08/27 15:54:08;;;;;;;20.00;18.40;;;25.10;99.90;;;;;;4976198;28;21061;-64
2022/08/27 15:56:34;;;;;;;23.10;21.20;;;25.10;99.90;;;;;;4977268;28;20946;-64
2022/08/27 15:59:01;;;;;;;25.50;23.37;;;25.10;99.90;;;;;;4977527;28;20462;-64
2022/08/27 16:01:32;;;;;;;23.37;21.40;;;25.00;99.90;;;;;;4977265;28;20831;-64
2022/08/27 16:04:00;;;;;;;24.57;22.57;;;25.00;99.90;;;;;;4977383;28;20534;-64
2022/08/27 16:06:27;;;;;;;28.73;26.07;;;24.90;99.90;;;;;;4978042;28;20458;-63
2022/08/27 16:08:54;;;;;;;29.00;26.33;;;24.90;99.90;;;;;;4977197;28;20483;-63
2022/08/27 16:11:21;;;;;;;27.63;25.50;;;24.80;99.90;;;;;;4976934;28;20471;-63
2022/08/27 16:13:48;;;;;;;30.20;27.67;;;24.70;99.90;;;;;;4977057;28;20463;-64
2022/08/27 16:16:16;;;;;;;36.17;32.87;;;24.70;99.90;;;;;;4977099;28;20509;-64
2022/08/27 16:18:44;;;;;;;34.33;31.00;;;24.60;99.90;;;;;;4976563;28;20450;-64
2022/08/27 16:21:10;;;;;;;36.30;32.63;;;24.50;99.90;;;;;;4976624;28;21004;-64
2022/08/27 16:23:37;;;;;;;34.30;31.30;;;24.30;99.90;;;;;;4976959;28;20509;-63
2022/08/27 16:26:04;;;;;;;34.93;31.83;;;24.20;99.90;;;;;;4976872;28;20458;-63
2022/08/27 16:28:31;;;;;;;36.17;32.73;;;24.10;99.90;;;;;;4976466;28;21020;-63
2022/08/27 16:30:57;;;;;;;37.60;34.17;;;24.00;99.90;;;;;;4976813;28;20478;-63
2022/08/27 16:33:24;;;;;;;34.23;31.23;;;23.90;99.90;;;;;;4976814;28;20455;-63
2022/08/27 16:35:53;;;;;;;36.20;32.93;;;23.80;99.90;;;;;;4976552;28;20462;-63
2022/08/27 16:38:20;;;;;;;37.67;34.10;;;23.70;99.90;;;;;;4976635;28;20929;-63
2022/08/27 16:40:51;;;;;;;33.23;30.10;;;23.70;99.90;;;;;;4976690;28;20470;-63
2022/08/27 16:43:20;;;;;;;33.97;30.33;;;23.60;99.90;;;;;;4976708;28;20443;-63
2022/08/27 16:45:48;;;;;;;31.93;28.67;;;23.60;99.90;;;;;;4976519;28;20458;-64
2022/08/27 16:51:03;;;;;;;31.63;28.93;;;23.50;99.90;;;;;;4976380;28;20552;-64